Time;durP1;ratioP1;P1;durP2;ratioP2;P2;SDS_P1;SDS_P2;PMS_P1;PMS_P2;Temp;Humidity;BMP_temperature;BMP_pressure;BME280_temperature;BME280_humidity;BME280_pressure;Samples;Min_cycle;Max_cycle;Signal;HPM_P1;HPM_P2
2024/02/26 00:00:09;;;;;;;1.92;1.60;;;;;;;;;;4961903;28;20109;-76
2024/02/26 00:02:37;;;;;;;1.35;1.23;;;;;;;;;;4965024;28;20045;-76
2024/02/26 00:05:05;;;;;;;2.03;1.20;;;;;;;;;;4980352;28;20038;-76
2024/02/26 00:07:30;;;;;;;5.88;1.90;;;;;;;;;;4974775;28;20125;-76
2024/02/26 00:09:56;;;;;;;3.30;1.60;;;;;;;;;;4932775;28;20159;-76
2024/02/26 00:12:21;;;;;;;2.75;0.68;;;;;;;;;;4966244;28;20064;-76
2024/02/26 00:14:49;;;;;;;1.92;1.20;;;;;;;;;;4954378;28;20077;-76
2024/02/26 00:17:15;;;;;;;1.13;0.80;;;;;;;;;;4946028;28;20050;-77
2024/02/26 00:19:41;;;;;;;2.17;0.82;;;;;;;;;;4972852;28;20038;-77
2024/02/26 00:22:06;;;;;;;2.42;0.98;;;;;;;;;;4968860;28;20038;-76
2024/02/26 00:24:32;;;;;;;2.42;1.23;;;;;;;;;;4970017;28;20097;-78
2024/02/26 00:26:57;;;;;;;3.17;1.48;;;;;;;;;;4965432;28;20578;-78
2024/02/26 00:29:23;;;;;;;5.15;1.90;;;;;;;;;;4971332;28;20048;-77
2024/02/26 00:31:48;;;;;;;2.95;1.50;;;;;;;;;;4971848;28;20058;-77
2024/02/26 00:34:14;;;;;;;1.52;1.30;;;;;;;;;;4950952;28;20129;-77
2024/02/26 00:36:39;;;;;;;1.70;1.40;;;;;;;;;;4958900;28;20077;-77
2024/02/26 00:39:05;;;;;;;1.95;1.35;;;;;;;;;;4953409;28;20759;-76
2024/02/26 00:41:30;;;;;;;4.22;1.27;;;;;;;;;;4970973;28;20196;-77
2024/02/26 00:43:56;;;;;;;2.38;1.13;;;;;;;;;;4968049;28;20038;-77
2024/02/26 00:46:21;;;;;;;1.20;0.80;;;;;;;;;;4960174;28;20658;-77
2024/02/26 00:48:46;;;;;;;1.65;1.35;;;;;;;;;;4972645;28;20030;-76
2024/02/26 00:51:12;;;;;;;0.77;0.70;;;;;;;;;;4964788;28;20040;-77
2024/02/26 00:53:37;;;;;;;2.28;1.30;;;;;;;;;;4975327;28;20046;-77
2024/02/26 00:56:03;;;;;;;2.35;1.70;;;;;;;;;;4951851;28;20054;-77
2024/02/26 00:58:28;;;;;;;3.00;1.58;;;;;;;;;;4967907;28;20418;-76
2024/02/26 01:00:53;;;;;;;2.15;1.77;;;;;;;;;;4949037;28;20038;-77
2024/02/26 01:03:19;;;;;;;1.35;1.15;;;;;;;;;;4969849;28;20139;-77
2024/02/26 01:05:45;;;;;;;12.90;2.55;;;;;;;;;;4966573;28;20121;-76
2024/02/26 01:08:10;;;;;;;8.02;2.25;;;;;;;;;;4949997;28;20031;-75
2024/02/26 01:10:36;;;;;;;4.80;1.30;;;;;;;;;;4963667;28;20648;-77
2024/02/26 01:13:01;;;;;;;3.05;1.40;;;;;;;;;;4966606;28;20037;-76
2024/02/26 01:15:27;;;;;;;7.90;1.38;;;;;;;;;;4974081;28;20041;-76
2024/02/26 01:17:52;;;;;;;9.00;1.70;;;;;;;;;;4959796;28;20061;-77
2024/02/26 01:20:18;;;;;;;6.35;1.50;;;;;;;;;;4972036;28;20051;-76
2024/02/26 01:22:43;;;;;;;1.58;0.63;;;;;;;;;;4970197;28;20639;-77
2024/02/26 01:25:09;;;;;;;3.90;1.08;;;;;;;;;;4966320;28;20038;-76
2024/02/26 01:27:38;;;;;;;11.95;0.90;;;;;;;;;;4956304;28;20783;-77
2024/02/26 01:30:04;;;;;;;5.93;1.08;;;;;;;;;;4958944;28;20039;-77
2024/02/26 01:32:30;;;;;;;1.92;0.75;;;;;;;;;;4972086;28;20567;-77
2024/02/26 01:34:56;;;;;;;5.72;1.23;;;;;;;;;;4953092;28;20137;-76
2024/02/26 01:37:21;;;;;;;8.48;1.88;;;;;;;;;;4973040;28;20042;-77
2024/02/26 01:39:46;;;;;;;5.00;1.20;;;;;;;;;;4960888;28;20112;-77
2024/02/26 01:42:12;;;;;;;2.17;1.08;;;;;;;;;;4970529;28;20117;-77
2024/02/26 01:44:38;;;;;;;2.70;2.00;;;;;;;;;;4956908;28;20046;-76
2024/02/26 01:47:04;;;;;;;3.45;1.63;;;;;;;;;;4975691;28;20103;-77
2024/02/26 01:49:30;;;;;;;10.55;1.48;;;;;;;;;;4961730;28;20054;-77
2024/02/26 01:51:56;;;;;;;0.82;0.60;;;;;;;;;;4956877;28;20487;-77
2024/02/26 01:54:21;;;;;;;1.23;0.95;;;;;;;;;;4972876;28;20042;-77
2024/02/26 01:56:47;;;;;;;1.65;1.20;;;;;;;;;;4958009;28;20125;-76
2024/02/26 01:59:13;;;;;;;1.42;0.90;;;;;;;;;;4975306;28;20044;-76
2024/02/26 02:01:44;;;;;;;1.85;0.80;;;;;;;;;;4967678;28;20140;-77
2024/02/26 02:04:09;;;;;;;0.50;0.50;;;;;;;;;;4948287;28;20047;-77
2024/02/26 02:06:36;;;;;;;2.22;1.73;;;;;;;;;;4960192;28;20585;-77
2024/02/26 02:09:06;;;;;;;1.77;1.30;;;;;;;;;;4961100;28;20038;-76
2024/02/26 02:11:32;;;;;;;1.80;1.40;;;;;;;;;;4976133;28;20621;-77
2024/02/26 02:13:58;;;;;;;1.13;1.05;;;;;;;;;;4948609;28;20031;-77
2024/02/26 02:16:23;;;;;;;1.27;1.02;;;;;;;;;;4959805;28;20061;-76
2024/02/26 02:18:49;;;;;;;2.33;1.40;;;;;;;;;;4959872;28;20074;-77
2024/02/26 02:21:14;;;;;;;1.92;1.10;;;;;;;;;;4978243;28;20042;-77
2024/02/26 02:23:40;;;;;;;3.22;1.40;;;;;;;;;;4941031;28;20059;-77
2024/02/26 02:26:05;;;;;;;1.70;1.50;;;;;;;;;;4951771;28;20059;-77
2024/02/26 02:28:31;;;;;;;1.98;0.80;;;;;;;;;;4951182;28;20404;-76
2024/02/26 02:30:56;;;;;;;2.42;1.48;;;;;;;;;;4924886;28;20038;-77
2024/02/26 02:33:22;;;;;;;1.65;1.40;;;;;;;;;;4957098;28;20031;-77
2024/02/26 02:35:50;;;;;;;2.35;1.52;;;;;;;;;;4962965;28;20038;-76
2024/02/26 02:38:15;;;;;;;3.33;1.50;;;;;;;;;;4956459;28;20062;-77
2024/02/26 02:40:41;;;;;;;2.47;2.08;;;;;;;;;;4954531;28;20073;-77
2024/02/26 02:43:06;;;;;;;1.50;1.00;;;;;;;;;;4961990;28;20054;-76
2024/02/26 02:45:32;;;;;;;1.73;1.13;;;;;;;;;;4949751;28;20046;-77
2024/02/26 02:47:57;;;;;;;1.38;0.80;;;;;;;;;;4950739;28;20039;-76
2024/02/26 02:50:22;;;;;;;5.57;2.40;;;;;;;;;;4960115;28;20042;-77
2024/02/26 02:52:48;;;;;;;4.93;2.03;;;;;;;;;;4962010;28;20041;-78
2024/02/26 02:55:13;;;;;;;3.35;1.88;;;;;;;;;;4961261;28;20048;-78
2024/02/26 02:57:41;;;;;;;2.65;2.20;;;;;;;;;;4954673;28;20054;-77
2024/02/26 03:00:10;;;;;;;2.78;1.75;;;;;;;;;;4958596;28;20045;-77
2024/02/26 03:02:35;;;;;;;1.50;1.35;;;;;;;;;;4951165;28;20100;-76
2024/02/26 03:05:02;;;;;;;1.65;1.27;;;;;;;;;;4967503;28;20372;-76
2024/02/26 03:07:27;;;;;;;1.48;0.98;;;;;;;;;;4950001;28;20365;-77
2024/02/26 03:09:53;;;;;;;1.90;1.00;;;;;;;;;;4963030;28;20252;-77
2024/02/26 03:12:18;;;;;;;3.67;2.10;;;;;;;;;;4935968;28;20542;-77
2024/02/26 03:14:44;;;;;;;5.57;2.65;;;;;;;;;;4963912;28;20125;-77
2024/02/26 03:17:09;;;;;;;1.48;0.82;;;;;;;;;;4960692;28;20126;-76
2024/02/26 03:19:34;;;;;;;2.15;1.65;;;;;;;;;;4955121;28;20559;-77
2024/02/26 03:22:00;;;;;;;5.65;2.63;;;;;;;;;;4966660;28;20038;-77
2024/02/26 03:24:25;;;;;;;16.25;4.25;;;;;;;;;;4952516;28;20929;-77
2024/02/26 03:26:51;;;;;;;3.10;1.30;;;;;;;;;;4958354;28;20034;-77
2024/02/26 03:29:17;;;;;;;3.47;1.88;;;;;;;;;;4974476;28;20056;-77
2024/02/26 03:31:42;;;;;;;15.40;4.15;;;;;;;;;;4941214;28;20513;-77
2024/02/26 03:34:08;;;;;;;3.40;1.17;;;;;;;;;;4955769;28;20058;-77
2024/02/26 03:36:34;;;;;;;4.00;1.67;;;;;;;;;;4957198;28;20076;-77
2024/02/26 03:38:59;;;;;;;2.30;1.25;;;;;;;;;;4956702;28;20070;-77
2024/02/26 03:41:25;;;;;;;5.20;2.88;;;;;;;;;;4964774;28;20507;-77
2024/02/26 03:43:50;;;;;;;5.95;3.92;;;;;;;;;;4944799;28;20062;-77
2024/02/26 03:46:16;;;;;;;5.32;3.72;;;;;;;;;;4971872;28;20030;-78
2024/02/26 03:48:41;;;;;;;1.92;1.20;;;;;;;;;;4965434;28;20034;-78
2024/02/26 03:51:09;;;;;;;1.45;0.98;;;;;;;;;;4952121;28;20438;-77
2024/02/26 03:53:35;;;;;;;3.10;1.95;;;;;;;;;;4945659;28;20129;-77
2024/02/26 03:56:04;;;;;;;1.52;1.20;;;;;;;;;;4966501;28;20129;-77
2024/02/26 03:58:30;;;;;;;4.03;1.98;;;;;;;;;;4971964;28;20042;-77
2024/02/26 04:00:55;;;;;;;2.53;1.52;;;;;;;;;;4976136;28;20037;-77
2024/02/26 04:03:21;;;;;;;5.53;3.70;;;;;;;;;;4961385;28;20117;-77
2024/02/26 04:05:47;;;;;;;5.53;3.33;;;;;;;;;;4968315;28;20046;-78
2024/02/26 04:08:12;;;;;;;5.20;3.22;;;;;;;;;;4970306;28;20109;-79
2024/02/26 04:10:40;;;;;;;3.00;1.58;;;;;;;;;;4954023;28;20046;-79
2024/02/26 04:13:07;;;;;;;6.80;4.20;;;;;;;;;;4976118;28;20339;-81
2024/02/26 04:15:32;;;;;;;3.45;1.80;;;;;;;;;;4971786;28;20159;-78
2024/02/26 04:17:58;;;;;;;8.23;4.22;;;;;;;;;;4957853;28;20527;-77
2024/02/26 04:20:24;;;;;;;6.30;2.95;;;;;;;;;;4956919;28;20047;-78
2024/02/26 04:22:49;;;;;;;10.73;5.85;;;;;;;;;;4970138;28;20069;-80
2024/02/26 04:25:15;;;;;;;7.53;2.90;;;;;;;;;;4963014;28;20065;-81
2024/02/26 04:27:40;;;;;;;12.38;6.78;;;;;;;;;;4977879;28;20759;-77
2024/02/26 04:30:07;;;;;;;3.50;2.38;;;;;;;;;;4960457;28;20045;-78
2024/02/26 04:32:33;;;;;;;14.60;6.35;;;;;;;;;;4966945;28;20060;-78
2024/02/26 04:34:58;;;;;;;16.25;7.35;;;;;;;;;;4958430;28;20042;-77
2024/02/26 04:37:23;;;;;;;12.65;6.10;;;;;;;;;;4932659;28;20042;-81
2024/02/26 04:39:49;;;;;;;6.97;4.38;;;;;;;;;;4966370;28;20061;-77
2024/02/26 04:42:14;;;;;;;12.05;6.85;;;;;;;;;;4961765;28;20044;-80
2024/02/26 04:44:39;;;;;;;4.07;2.38;;;;;;;;;;4976984;28;20118;-78
2024/02/26 04:47:05;;;;;;;5.63;2.80;;;;;;;;;;4964643;28;20049;-77
2024/02/26 04:49:30;;;;;;;8.40;4.47;;;;;;;;;;4955509;28;20133;-77
2024/02/26 04:51:56;;;;;;;13.07;6.75;;;;;;;;;;4948049;28;20495;-78
2024/02/26 04:54:21;;;;;;;3.50;2.25;;;;;;;;;;4964576;28;20037;-79
2024/02/26 04:56:48;;;;;;;18.58;7.45;;;;;;;;;;4955305;28;20663;-77
2024/02/26 04:59:13;;;;;;;8.75;4.82;;;;;;;;;;4962532;28;20045;-78
2024/02/26 05:01:39;;;;;;;17.70;8.95;;;;;;;;;;4966349;28;20051;-77
2024/02/26 05:04:04;;;;;;;17.13;8.63;;;;;;;;;;4972889;28;20046;-77
2024/02/26 05:06:30;;;;;;;7.03;3.75;;;;;;;;;;4967628;28;20094;-76
2024/02/26 05:08:55;;;;;;;24.20;9.57;;;;;;;;;;4968998;28;20049;-78
2024/02/26 05:11:21;;;;;;;6.53;3.60;;;;;;;;;;4960111;28;20040;-78
2024/02/26 05:13:48;;;;;;;19.02;7.63;;;;;;;;;;4957990;28;20447;-77
2024/02/26 05:16:13;;;;;;;17.88;8.15;;;;;;;;;;4968750;28;20034;-78
2024/02/26 05:18:38;;;;;;;19.30;8.88;;;;;;;;;;4972512;28;20084;-76
2024/02/26 05:21:04;;;;;;;8.70;4.05;;;;;;;;;;4958198;28;20098;-77
2024/02/26 05:23:30;;;;;;;8.00;4.13;;;;;;;;;;4962064;28;20042;-79
2024/02/26 05:25:55;;;;;;;24.70;9.90;;;;;;;;;;4966227;28;20113;-77
2024/02/26 05:28:20;;;;;;;11.73;5.93;;;;;;;;;;4964481;28;20044;-79
2024/02/26 05:30:46;;;;;;;9.68;5.03;;;;;;;;;;4962382;28;20050;-79
2024/02/26 05:33:12;;;;;;;12.40;5.15;;;;;;;;;;4936840;28;20054;-77
2024/02/26 05:35:38;;;;;;;13.15;6.80;;;;;;;;;;4956585;28;20042;-77
2024/02/26 05:38:03;;;;;;;9.20;3.92;;;;;;;;;;4944685;28;20043;-78
2024/02/26 05:40:29;;;;;;;8.32;3.08;;;;;;;;;;4975179;28;20388;-80
2024/02/26 05:42:55;;;;;;;17.05;7.30;;;;;;;;;;4964049;28;20132;-78
2024/02/26 05:45:21;;;;;;;4.68;2.80;;;;;;;;;;4942735;28;20126;-77
2024/02/26 05:47:47;;;;;;;25.70;12.00;;;;;;;;;;4960312;28;20521;-78
2024/02/26 05:50:13;;;;;;;25.30;11.18;;;;;;;;;;4957932;28;20095;-77
2024/02/26 05:52:40;;;;;;;28.23;12.73;;;;;;;;;;4966258;28;20558;-77
2024/02/26 05:55:06;;;;;;;18.65;8.02;;;;;;;;;;4953740;28;20030;-78
2024/02/26 05:57:33;;;;;;;8.40;4.38;;;;;;;;;;4960538;28;20053;-77
2024/02/26 06:00:03;;;;;;;16.55;7.03;;;;;;;;;;4978323;28;20077;-77
2024/02/26 06:02:28;;;;;;;21.20;8.73;;;;;;;;;;4939366;28;20035;-79
2024/02/26 06:04:54;;;;;;;23.42;9.90;;;;;;;;;;4941120;28;20507;-77
2024/02/26 06:07:19;;;;;;;11.15;5.28;;;;;;;;;;4962184;28;20090;-77
2024/02/26 06:09:44;;;;;;;26.65;10.70;;;;;;;;;;4967427;28;20120;-77
2024/02/26 06:12:10;;;;;;;25.73;12.05;;;;;;;;;;4970030;28;20804;-77
2024/02/26 06:14:35;;;;;;;8.82;4.25;;;;;;;;;;4955295;28;20050;-76
2024/02/26 06:17:01;;;;;;;16.85;8.68;;;;;;;;;;4968973;28;20044;-78
2024/02/26 06:19:26;;;;;;;2.92;1.73;;;;;;;;;;4959203;28;20042;-76
2024/02/26 06:21:52;;;;;;;20.10;9.15;;;;;;;;;;4972030;28;20034;-76
2024/02/26 06:24:17;;;;;;;13.18;6.22;;;;;;;;;;4962464;28;20041;-78
2024/02/26 06:26:42;;;;;;;24.65;11.52;;;;;;;;;;4965874;28;20179;-76
2024/02/26 06:29:08;;;;;;;23.63;10.48;;;;;;;;;;4968902;28;20129;-78
2024/02/26 06:31:33;;;;;;;6.68;4.30;;;;;;;;;;4969311;28;20069;-77
2024/02/26 06:33:59;;;;;;;17.40;9.43;;;;;;;;;;4980269;28;20117;-77
2024/02/26 06:36:25;;;;;;;22.27;9.90;;;;;;;;;;4957861;28;20129;-77
2024/02/26 06:38:51;;;;;;;6.00;3.13;;;;;;;;;;4967132;28;20034;-76
2024/02/26 06:41:17;;;;;;;8.80;4.72;;;;;;;;;;4963192;28;20054;-77
2024/02/26 06:43:42;;;;;;;19.83;9.38;;;;;;;;;;4962475;28;20077;-76
2024/02/26 06:46:08;;;;;;;3.88;2.05;;;;;;;;;;4962419;28;20100;-78
2024/02/26 06:48:33;;;;;;;17.77;8.57;;;;;;;;;;4971354;28;20056;-75
2024/02/26 06:50:58;;;;;;;36.13;13.68;;;;;;;;;;4964849;28;20046;-78
2024/02/26 06:53:24;;;;;;;9.18;5.72;;;;;;;;;;4952138;28;20529;-78
2024/02/26 06:55:50;;;;;;;10.32;4.90;;;;;;;;;;4968313;28;20094;-77
2024/02/26 06:58:15;;;;;;;15.10;7.18;;;;;;;;;;4955434;28;20141;-76
2024/02/26 07:00:41;;;;;;;5.03;3.05;;;;;;;;;;4966368;28;20069;-79
2024/02/26 07:03:06;;;;;;;6.00;3.42;;;;;;;;;;4969368;28;20042;-75
2024/02/26 07:05:31;;;;;;;12.07;6.03;;;;;;;;;;4964680;28;20209;-77
2024/02/26 07:07:57;;;;;;;11.00;5.13;;;;;;;;;;4971581;28;20046;-76
2024/02/26 07:10:22;;;;;;;17.10;7.15;;;;;;;;;;4949251;28;20144;-77
2024/02/26 07:12:47;;;;;;;16.58;6.55;;;;;;;;;;4964713;28;20056;-77
2024/02/26 07:15:13;;;;;;;8.80;5.05;;;;;;;;;;4956295;28;20057;-75
2024/02/26 07:17:41;;;;;;;14.98;6.88;;;;;;;;;;4986921;28;20057;-78
2024/02/26 07:20:08;;;;;;;15.65;6.80;;;;;;;;;;4970415;28;20045;-78
2024/02/26 07:22:33;;;;;;;24.08;11.18;;;;;;;;;;4967870;28;20048;-76
2024/02/26 07:24:59;;;;;;;24.67;10.88;;;;;;;;;;4960531;28;20038;-75
2024/02/26 07:27:24;;;;;;;15.20;7.47;;;;;;;;;;4952517;28;20053;-75
2024/02/26 07:29:49;;;;;;;22.63;10.82;;;;;;;;;;4974374;28;20039;-76
2024/02/26 07:32:15;;;;;;;21.25;9.38;;;;;;;;;;4957643;28;20034;-78
2024/02/26 07:34:44;;;;;;;22.65;10.85;;;;;;;;;;4963585;28;20048;-76
2024/02/26 07:37:12;;;;;;;21.80;9.52;;;;;;;;;;4962608;28;20045;-74
2024/02/26 07:39:38;;;;;;;23.70;10.65;;;;;;;;;;4967897;28;20041;-77
2024/02/26 07:42:04;;;;;;;14.32;7.72;;;;;;;;;;4944123;28;20271;-79
2024/02/26 07:44:29;;;;;;;22.23;10.43;;;;;;;;;;4971084;28;20043;-76
2024/02/26 07:46:54;;;;;;;23.13;10.02;;;;;;;;;;4943922;28;20045;-74
2024/02/26 07:49:20;;;;;;;25.20;11.15;;;;;;;;;;4961244;28;20057;-77
2024/02/26 07:51:45;;;;;;;23.40;11.73;;;;;;;;;;4973145;28;20109;-76
2024/02/26 07:54:11;;;;;;;22.77;12.15;;;;;;;;;;4979832;28;20061;-76
2024/02/26 07:56:36;;;;;;;24.45;12.07;;;;;;;;;;4975918;28;20038;-75
2024/02/26 07:59:02;;;;;;;23.55;10.23;;;;;;;;;;4953371;28;20661;-76
2024/02/26 08:01:27;;;;;;;21.77;10.07;;;;;;;;;;4970303;28;20050;-79
2024/02/26 08:03:53;;;;;;;20.45;10.32;;;;;;;;;;4958168;28;20046;-83
2024/02/26 08:06:18;;;;;;;21.58;10.35;;;;;;;;;;4939840;28;20050;-76
2024/02/26 08:08:44;;;;;;;22.70;10.82;;;;;;;;;;4948850;28;20045;-80
2024/02/26 08:11:10;;;;;;;24.13;13.20;;;;;;;;;;4972043;28;20053;-79
2024/02/26 08:13:35;;;;;;;24.15;11.02;;;;;;;;;;4977215;28;20046;-79
2024/02/26 08:16:01;;;;;;;12.32;6.90;;;;;;;;;;4957340;28;20047;-77
2024/02/26 08:18:26;;;;;;;19.88;9.65;;;;;;;;;;4950158;28;20038;-77
2024/02/26 08:20:52;;;;;;;22.00;9.82;;;;;;;;;;4966390;28;20034;-76
2024/02/26 08:23:17;;;;;;;19.38;9.75;;;;;;;;;;4974352;28;20034;-77
2024/02/26 08:25:43;;;;;;;12.23;6.07;;;;;;;;;;4961547;28;20515;-76
2024/02/26 08:28:08;;;;;;;10.80;5.32;;;;;;;;;;4975970;28;20038;-76
2024/02/26 08:30:34;;;;;;;20.40;9.35;;;;;;;;;;4967721;28;20125;-76
2024/02/26 08:32:59;;;;;;;20.25;9.68;;;;;;;;;;4947302;28;20213;-77
2024/02/26 08:35:25;;;;;;;10.30;5.57;;;;;;;;;;4970071;28;20097;-77
2024/02/26 08:37:50;;;;;;;23.42;10.38;;;;;;;;;;4952505;28;20061;-76
2024/02/26 08:40:16;;;;;;;16.25;9.05;;;;;;;;;;4969013;28;20033;-76
2024/02/26 08:42:42;;;;;;;14.73;7.32;;;;;;;;;;4974272;28;20095;-77
2024/02/26 08:45:08;;;;;;;21.58;9.73;;;;;;;;;;4974000;28;20756;-77
2024/02/26 08:47:33;;;;;;;14.93;7.18;;;;;;;;;;4976587;28;20379;-77
2024/02/26 08:49:59;;;;;;;18.70;9.57;;;;;;;;;;4962257;28;20041;-76
2024/02/26 08:52:24;;;;;;;18.60;10.10;;;;;;;;;;4971042;28;20034;-77
2024/02/26 08:54:50;;;;;;;23.08;11.00;;;;;;;;;;4966922;28;20041;-77
2024/02/26 08:57:15;;;;;;;18.60;10.38;;;;;;;;;;4971656;28;20433;-76
2024/02/26 08:59:41;;;;;;;18.73;9.60;;;;;;;;;;4966481;28;20069;-77
2024/02/26 09:02:09;;;;;;;18.67;9.77;;;;;;;;;;4975700;28;20046;-77
2024/02/26 09:04:35;;;;;;;20.48;9.43;;;;;;;;;;4956696;28;20129;-76
2024/02/26 09:07:01;;;;;;;21.38;12.43;;;;;;;;;;4967410;28;20041;-78
2024/02/26 09:09:26;;;;;;;26.17;11.77;;;;;;;;;;4967727;28;20038;-78
2024/02/26 09:11:52;;;;;;;22.00;10.35;;;;;;;;;;4970205;28;20042;-78
2024/02/26 09:14:18;;;;;;;21.23;10.95;;;;;;;;;;4951230;28;20147;-78
2024/02/26 09:16:43;;;;;;;18.55;9.52;;;;;;;;;;4972499;28;20045;-78
2024/02/26 09:19:09;;;;;;;19.08;9.82;;;;;;;;;;4966469;28;20034;-78
2024/02/26 09:21:34;;;;;;;16.17;9.10;;;;;;;;;;4973816;28;20494;-78
2024/02/26 09:24:00;;;;;;;16.42;9.18;;;;;;;;;;4967096;28;20038;-78
2024/02/26 09:26:25;;;;;;;19.33;10.05;;;;;;;;;;4973332;28;20261;-78
2024/02/26 09:28:51;;;;;;;15.63;8.70;;;;;;;;;;4964231;28;20048;-78
2024/02/26 09:31:18;;;;;;;18.35;7.82;;;;;;;;;;4960071;28;20054;-78
2024/02/26 09:33:43;;;;;;;19.60;10.10;;;;;;;;;;4956662;28;20053;-78
2024/02/26 09:36:10;;;;;;;20.70;10.15;;;;;;;;;;4965900;28;20042;-78
2024/02/26 09:38:37;;;;;;;19.67;9.60;;;;;;;;;;4962764;28;20177;-77
2024/02/26 09:41:06;;;;;;;19.98;10.70;;;;;;;;;;4945644;28;20048;-78
2024/02/26 09:43:36;;;;;;;20.48;9.70;;;;;;;;;;4952117;28;20046;-77
2024/02/26 09:46:01;;;;;;;20.23;11.02;;;;;;;;;;4959496;28;20057;-77
2024/02/26 09:48:28;;;;;;;18.02;9.27;;;;;;;;;;4958104;28;20046;-80
2024/02/26 09:50:53;;;;;;;21.73;11.48;;;;;;;;;;4963280;28;20124;-76
2024/02/26 09:53:21;;;;;;;17.88;9.57;;;;;;;;;;4970624;28;20122;-76
2024/02/26 09:55:47;;;;;;;20.23;9.20;;;;;;;;;;4934887;28;20047;-76
2024/02/26 09:58:18;;;;;;;24.63;9.50;;;;;;;;;;4970777;28;20050;-75
2024/02/26 10:00:50;;;;;;;20.83;10.20;;;;;;;;;;4958326;28;20141;-79
2024/02/26 10:03:16;;;;;;;17.63;10.02;;;;;;;;;;4969278;28;20085;-76
2024/02/26 10:05:42;;;;;;;18.88;10.30;;;;;;;;;;4963177;28;20046;-76
2024/02/26 10:08:11;;;;;;;18.05;10.20;;;;;;;;;;4956913;28;20117;-77
2024/02/26 10:10:38;;;;;;;15.35;8.32;;;;;;;;;;4955696;28;20499;-80
2024/02/26 10:13:09;;;;;;;20.65;9.98;;;;;;;;;;4964187;28;20799;-77
2024/02/26 10:15:35;;;;;;;18.52;11.45;;;;;;;;;;4945289;28;20054;-76
2024/02/26 10:18:04;;;;;;;20.88;10.57;;;;;;;;;;4967813;28;20072;-77
2024/02/26 10:20:31;;;;;;;24.83;15.63;;;;;;;;;;4959458;28;20097;-78
2024/02/26 10:22:57;;;;;;;18.80;10.88;;;;;;;;;;4951274;28;20070;-77
2024/02/26 10:25:22;;;;;;;18.02;10.25;;;;;;;;;;4960318;28;20065;-77
2024/02/26 10:27:47;;;;;;;19.20;10.52;;;;;;;;;;4964542;28;20112;-78
2024/02/26 10:30:20;;;;;;;11.80;7.00;;;;;;;;;;4954517;28;20092;-75
2024/02/26 10:32:47;;;;;;;15.07;7.40;;;;;;;;;;4925656;28;20126;-77
2024/02/26 10:35:16;;;;;;;20.10;11.10;;;;;;;;;;4959555;28;20121;-78
2024/02/26 10:37:42;;;;;;;21.65;10.65;;;;;;;;;;4964545;28;20046;-76
2024/02/26 10:40:14;;;;;;;16.70;8.88;;;;;;;;;;4947524;28;20046;-76
2024/02/26 10:42:41;;;;;;;20.70;9.63;;;;;;;;;;4942999;28;20038;-76
2024/02/26 10:45:08;;;;;;;19.20;9.77;;;;;;;;;;4966860;28;20030;-77
2024/02/26 10:47:35;;;;;;;16.17;9.82;;;;;;;;;;4948284;28;20054;-77
2024/02/26 10:50:05;;;;;;;27.88;10.85;;;;;;;;;;4971894;28;20034;-77
2024/02/26 10:52:35;;;;;;;18.02;10.45;;;;;;;;;;4970302;28;20053;-76
2024/02/26 10:55:02;;;;;;;19.92;10.95;;;;;;;;;;4978108;28;20690;-77
2024/02/26 10:57:50;;;;;;;16.40;9.55;;;;;;;;;;4959723;28;20043;-77
2024/02/26 11:00:16;;;;;;;16.75;9.73;;;;;;;;;;4954899;28;20105;-76
2024/02/26 11:02:45;;;;;;;19.90;12.00;;;;;;;;;;4963683;28;20057;-77
2024/02/26 11:05:11;;;;;;;18.85;11.27;;;;;;;;;;4964101;28;20044;-79
2024/02/26 11:07:38;;;;;;;17.02;10.82;;;;;;;;;;4971860;28;20139;-77
2024/02/26 11:10:04;;;;;;;17.35;9.73;;;;;;;;;;4961879;28;20102;-76
2024/02/26 11:12:32;;;;;;;15.43;9.75;;;;;;;;;;4976270;28;20070;-76
2024/02/26 11:14:58;;;;;;;20.00;11.07;;;;;;;;;;4946620;28;20546;-76
2024/02/26 11:17:31;;;;;;;14.80;7.30;;;;;;;;;;4973496;28;20142;-78
2024/02/26 11:20:02;;;;;;;17.48;10.48;;;;;;;;;;4954365;28;20046;-76
2024/02/26 11:22:28;;;;;;;16.52;9.27;;;;;;;;;;4964174;28;20031;-78
2024/02/26 11:24:57;;;;;;;16.20;9.32;;;;;;;;;;4956174;28;20040;-77
2024/02/26 11:27:26;;;;;;;17.70;10.10;;;;;;;;;;4972011;28;20232;-77
2024/02/26 11:29:53;;;;;;;16.77;10.23;;;;;;;;;;4955213;28;20046;-76
2024/02/26 11:32:19;;;;;;;12.73;7.85;;;;;;;;;;4956259;28;20046;-79
2024/02/26 11:34:46;;;;;;;13.32;7.63;;;;;;;;;;4962974;28;20058;-76
2024/02/26 11:37:12;;;;;;;14.52;7.97;;;;;;;;;;4971101;28;20065;-76
2024/02/26 11:39:39;;;;;;;18.58;11.40;;;;;;;;;;4964028;28;20040;-78
2024/02/26 11:42:09;;;;;;;14.20;7.07;;;;;;;;;;4926360;28;20039;-79
2024/02/26 11:44:36;;;;;;;18.50;9.20;;;;;;;;;;4972886;28;20038;-77
2024/02/26 11:47:17;;;;;;;15.07;9.20;;;;;;;;;;4958335;28;20046;-77
2024/02/26 11:49:43;;;;;;;14.20;7.75;;;;;;;;;;4967111;28;20122;-78
2024/02/26 11:52:09;;;;;;;15.07;9.45;;;;;;;;;;4949809;28;20113;-78
2024/02/26 11:54:51;;;;;;;11.80;7.15;;;;;;;;;;4974951;28;20042;-79
2024/02/26 11:57:30;;;;;;;17.08;8.90;;;;;;;;;;4960463;28;20052;-77
2024/02/26 11:59:57;;;;;;;16.17;8.15;;;;;;;;;;4916531;28;20038;-77
2024/02/26 12:02:44;;;;;;;14.48;8.40;;;;;;;;;;4962305;28;20042;-77
2024/02/26 12:05:20;;;;;;;13.23;8.02;;;;;;;;;;4971754;28;20073;-77
2024/02/26 12:07:53;;;;;;;14.15;8.75;;;;;;;;;;4962306;28;20037;-78
2024/02/26 12:10:38;;;;;;;15.75;8.57;;;;;;;;;;4950349;28;20038;-77
2024/02/26 12:13:14;;;;;;;14.38;7.40;;;;;;;;;;4955031;28;20530;-79
2024/02/26 12:15:41;;;;;;;16.08;8.98;;;;;;;;;;4948851;28;20479;-76
2024/02/26 12:18:10;;;;;;;15.48;7.43;;;;;;;;;;4954133;28;20055;-79
2024/02/26 12:20:36;;;;;;;11.10;7.45;;;;;;;;;;4952561;28;20034;-76
2024/02/26 12:23:03;;;;;;;14.73;6.90;;;;;;;;;;4962107;28;20037;-76
2024/02/26 12:25:31;;;;;;;15.77;8.15;;;;;;;;;;4965790;28;20034;-78
2024/02/26 12:27:57;;;;;;;14.50;7.90;;;;;;;;;;4964383;28;20066;-76
2024/02/26 12:30:23;;;;;;;12.18;7.70;;;;;;;;;;4965922;28;20123;-76
2024/02/26 12:32:50;;;;;;;10.95;7.90;;;;;;;;;;4965296;28;20117;-76
2024/02/26 12:35:17;;;;;;;11.05;7.70;;;;;;;;;;4954074;28;20049;-77
2024/02/26 12:37:44;;;;;;;10.15;6.97;;;;;;;;;;4962528;28;20043;-79
2024/02/26 12:40:10;;;;;;;10.82;7.07;;;;;;;;;;4962425;28;20046;-78
2024/02/26 12:42:39;;;;;;;10.30;7.28;;;;;;;;;;4972864;28;20034;-78
2024/02/26 12:45:11;;;;;;;13.48;7.93;;;;;;;;;;4968178;28;20194;-78
2024/02/26 12:47:36;;;;;;;15.25;7.90;;;;;;;;;;4963954;28;20975;-79
2024/02/26 12:50:04;;;;;;;11.80;7.28;;;;;;;;;;4965173;28;20034;-78
2024/02/26 12:52:31;;;;;;;12.38;8.02;;;;;;;;;;4969762;28;20048;-77
2024/02/26 12:54:56;;;;;;;10.30;6.80;;;;;;;;;;4951424;28;20153;-79
2024/02/26 12:57:22;;;;;;;13.38;7.53;;;;;;;;;;4966993;28;21204;-77
2024/02/26 12:59:47;;;;;;;11.75;6.85;;;;;;;;;;4977094;28;20034;-77
2024/02/26 13:02:13;;;;;;;14.68;8.57;;;;;;;;;;4959760;28;20038;-76
2024/02/26 13:04:39;;;;;;;11.57;7.13;;;;;;;;;;4970022;28;20072;-77
2024/02/26 13:07:04;;;;;;;11.18;7.63;;;;;;;;;;4958849;28;20038;-77
2024/02/26 13:09:35;;;;;;;12.05;8.40;;;;;;;;;;4963831;28;20042;-79
2024/02/26 13:12:04;;;;;;;14.45;8.25;;;;;;;;;;4956654;28;20092;-78
2024/02/26 13:14:31;;;;;;;14.00;7.40;;;;;;;;;;4961378;28;20046;-77
2024/02/26 13:17:00;;;;;;;15.15;7.72;;;;;;;;;;4978286;28;20081;-77
2024/02/26 13:19:27;;;;;;;11.35;6.68;;;;;;;;;;4970639;28;20044;-77
2024/02/26 13:21:53;;;;;;;15.13;9.02;;;;;;;;;;4960149;28;20038;-77
2024/02/26 13:24:20;;;;;;;12.32;7.60;;;;;;;;;;4964877;28;20538;-76
2024/02/26 13:26:46;;;;;;;14.35;7.88;;;;;;;;;;4948729;28;20108;-76
2024/02/26 13:29:20;;;;;;;12.18;7.53;;;;;;;;;;4969436;28;20499;-76
2024/02/26 13:31:48;;;;;;;12.43;7.10;;;;;;;;;;4968932;28;20121;-77
2024/02/26 13:34:27;;;;;;;11.27;7.10;;;;;;;;;;4970970;28;20038;-76
2024/02/26 13:36:56;;;;;;;10.90;6.20;;;;;;;;;;4965825;28;20038;-78
2024/02/26 13:39:25;;;;;;;13.43;7.05;;;;;;;;;;4964331;28;20049;-78
2024/02/26 13:41:51;;;;;;;9.25;6.35;;;;;;;;;;4973087;28;20044;-78
2024/02/26 13:44:17;;;;;;;11.15;7.38;;;;;;;;;;4977171;28;20100;-78
2024/02/26 13:46:42;;;;;;;11.52;8.35;;;;;;;;;;4984896;28;20042;-78
2024/02/26 13:49:09;;;;;;;13.00;8.57;;;;;;;;;;4980142;28;20041;-75
2024/02/26 13:51:35;;;;;;;12.52;8.00;;;;;;;;;;4967084;28;20038;-77
2024/02/26 13:54:01;;;;;;;10.50;6.47;;;;;;;;;;4974338;28;20097;-74
2024/02/26 13:56:27;;;;;;;12.25;7.57;;;;;;;;;;4964088;28;20045;-78
2024/02/26 13:58:52;;;;;;;11.63;6.57;;;;;;;;;;4962239;28;20044;-77
2024/02/26 14:01:17;;;;;;;9.95;6.00;;;;;;;;;;4954205;28;20046;-77
2024/02/26 14:03:43;;;;;;;10.77;5.63;;;;;;;;;;4970331;28;20111;-78
2024/02/26 14:06:09;;;;;;;10.57;6.05;;;;;;;;;;4952112;28;20046;-77
2024/02/26 14:08:34;;;;;;;9.88;6.30;;;;;;;;;;4965995;28;20046;-77
2024/02/26 14:11:00;;;;;;;11.15;7.05;;;;;;;;;;4983991;28;20176;-77
2024/02/26 14:13:25;;;;;;;9.82;5.88;;;;;;;;;;4969825;28;20038;-78
2024/02/26 14:15:51;;;;;;;12.20;6.25;;;;;;;;;;4970752;28;20041;-78
2024/02/26 14:18:16;;;;;;;10.40;6.43;;;;;;;;;;4964763;28;20050;-77
2024/02/26 14:20:42;;;;;;;8.57;5.80;;;;;;;;;;4962759;28;20049;-77
2024/02/26 14:23:08;;;;;;;11.05;6.32;;;;;;;;;;4971201;28;20093;-77
2024/02/26 14:25:33;;;;;;;11.35;6.75;;;;;;;;;;4955327;28;20065;-78
2024/02/26 14:28:00;;;;;;;10.27;5.43;;;;;;;;;;4966235;28;20841;-77